sensor_id;sensor_type;location;lat;lon;timestamp;pressure;altitude;pressure_sealevel;temperature;humidity
80149;BME280;69473;42.426;26.644;2023-07-31T00:00:09;98421.13;;;21.16;56.08
80149;BME280;69473;42.426;26.644;2023-07-31T00:02:35;98425.34;;;21.03;56.94
80149;BME280;69473;42.426;26.644;2023-07-31T00:05:02;98410.59;;;21.16;55.52
80149;BME280;69473;42.426;26.644;2023-07-31T00:07:27;98421.84;;;21.35;54.34
80149;BME280;69473;42.426;26.644;2023-07-31T00:09:53;98404.69;;;21.44;54.35
80149;BME280;69473;42.426;26.644;2023-07-31T00:12:19;98394.94;;;21.60;53.20
80149;BME280;69473;42.426;26.644;2023-07-31T00:14:45;98401.41;;;21.55;53.94
80149;BME280;69473;42.426;26.644;2023-07-31T00:17:11;98395.31;;;21.54;54.15
80149;BME280;69473;42.426;26.644;2023-07-31T00:19:37;98398.22;;;21.50;54.02
80149;BME280;69473;42.426;26.644;2023-07-31T00:22:03;98398.56;;;21.43;54.69
80149;BME280;69473;42.426;26.644;2023-07-31T00:24:28;98396.84;;;21.42;54.89
80149;BME280;69473;42.426;26.644;2023-07-31T00:26:54;98400.06;;;21.48;53.74
80149;BME280;69473;42.426;26.644;2023-07-31T00:29:19;98410.28;;;21.54;53.48
80149;BME280;69473;42.426;26.644;2023-07-31T00:31:45;98416.38;;;21.54;52.98
80149;BME280;69473;42.426;26.644;2023-07-31T00:34:10;98420.63;;;21.57;52.43
80149;BME280;69473;42.426;26.644;2023-07-31T00:36:36;98434.94;;;21.53;53.74
80149;BME280;69473;42.426;26.644;2023-07-31T00:39:02;98438.31;;;21.55;52.84
80149;BME280;69473;42.426;26.644;2023-07-31T00:41:27;98436.13;;;21.63;51.67
80149;BME280;69473;42.426;26.644;2023-07-31T00:43:53;98430.50;;;21.69;50.87
80149;BME280;69473;42.426;26.644;2023-07-31T00:46:19;98429.78;;;21.81;50.81
80149;BME280;69473;42.426;26.644;2023-07-31T00:48:45;98419.09;;;21.99;51.07
80149;BME280;69473;42.426;26.644;2023-07-31T00:51:11;98402.34;;;22.00;51.11
80149;BME280;69473;42.426;26.644;2023-07-31T00:53:37;98396.03;;;22.02;51.66
80149;BME280;69473;42.426;26.644;2023-07-31T00:56:03;98402.34;;;22.00;52.35
80149;BME280;69473;42.426;26.644;2023-07-31T00:58:30;98401.75;;;21.95;54.39
80149;BME280;69473;42.426;26.644;2023-07-31T01:00:55;98404.94;;;21.85;55.52
80149;BME280;69473;42.426;26.644;2023-07-31T01:03:21;98410.06;;;21.73;55.48
80149;BME280;69473;42.426;26.644;2023-07-31T01:11:28;98401.88;;;21.77;53.76
80149;BME280;69473;42.426;26.644;2023-07-31T01:13:55;98400.28;;;21.75;52.61
80149;BME280;69473;42.426;26.644;2023-07-31T01:16:21;98400.38;;;21.73;53.02
80149;BME280;69473;42.426;26.644;2023-07-31T01:18:46;98387.94;;;21.75;53.32
80149;BME280;69473;42.426;26.644;2023-07-31T01:21:56;98388.97;;;21.73;52.75
80149;BME280;69473;42.426;26.644;2023-07-31T01:24:28;98397.47;;;21.62;51.79
80149;BME280;69473;42.426;26.644;2023-07-31T01:27:15;98388.25;;;21.55;53.74
80149;BME280;69473;42.426;26.644;2023-07-31T01:29:49;98379.81;;;21.64;54.55
80149;BME280;69473;42.426;26.644;2023-07-31T01:32:19;98375.06;;;21.55;55.67
80149;BME280;69473;42.426;26.644;2023-07-31T01:34:46;98363.31;;;21.60;55.77
80149;BME280;69473;42.426;26.644;2023-07-31T01:37:12;98365.53;;;21.52;55.96
80149;BME280;69473;42.426;26.644;2023-07-31T01:39:38;98372.94;;;21.45;55.63
80149;BME280;69473;42.426;26.644;2023-07-31T01:42:04;98362.84;;;21.38;55.78
80149;BME280;69473;42.426;26.644;2023-07-31T01:44:29;98366.34;;;21.38;55.17
80149;BME280;69473;42.426;26.644;2023-07-31T01:46:55;98354.00;;;21.39;54.34
80149;BME280;69473;42.426;26.644;2023-07-31T01:49:20;98360.44;;;21.33;55.23
80149;BME280;69473;42.426;26.644;2023-07-31T01:51:46;98376.94;;;20.89;56.64
80149;BME280;69473;42.426;26.644;2023-07-31T01:54:12;98369.97;;;20.88;55.49
80149;BME280;69473;42.426;26.644;2023-07-31T01:56:37;98370.59;;;20.93;54.25
80149;BME280;69473;42.426;26.644;2023-07-31T01:59:03;98375.25;;;20.88;54.16
80149;BME280;69473;42.426;26.644;2023-07-31T02:01:28;98389.59;;;20.83;53.48
80149;BME280;69473;42.426;26.644;2023-07-31T02:03:54;98402.72;;;20.67;53.84
80149;BME280;69473;42.426;26.644;2023-07-31T02:06:19;98387.56;;;20.55;51.43
80149;BME280;69473;42.426;26.644;2023-07-31T02:08:45;98398.47;;;20.64;50.75
80149;BME280;69473;42.426;26.644;2023-07-31T02:11:10;98413.56;;;20.61;51.13
80149;BME280;69473;42.426;26.644;2023-07-31T02:13:36;98411.88;;;20.60;51.05
80149;BME280;69473;42.426;26.644;2023-07-31T02:16:01;98383.19;;;20.71;49.59
80149;BME280;69473;42.426;26.644;2023-07-31T02:18:27;98386.94;;;20.83;51.38
80149;BME280;69473;42.426;26.644;2023-07-31T02:20:53;98395.97;;;20.94;52.82
80149;BME280;69473;42.426;26.644;2023-07-31T02:23:19;98385.84;;;21.03;55.23
80149;BME280;69473;42.426;26.644;2023-07-31T02:25:45;98387.28;;;20.92;56.59
80149;BME280;69473;42.426;26.644;2023-07-31T02:28:11;98394.34;;;20.92;57.34
80149;BME280;69473;42.426;26.644;2023-07-31T02:30:37;98382.47;;;21.01;59.84
80149;BME280;69473;42.426;26.644;2023-07-31T02:33:03;98388.47;;;21.03;59.79
80149;BME280;69473;42.426;26.644;2023-07-31T02:35:29;98388.66;;;20.99;61.52
80149;BME280;69473;42.426;26.644;2023-07-31T02:37:54;98375.41;;;20.85;61.39
80149;BME280;69473;42.426;26.644;2023-07-31T02:40:20;98387.63;;;20.86;62.09
80149;BME280;69473;42.426;26.644;2023-07-31T02:42:45;98393.56;;;20.74;61.96
80149;BME280;69473;42.426;26.644;2023-07-31T02:45:11;98380.16;;;20.79;61.65
80149;BME280;69473;42.426;26.644;2023-07-31T02:47:36;98380.06;;;20.80;62.15
80149;BME280;69473;42.426;26.644;2023-07-31T02:50:05;98381.63;;;20.84;61.02
80149;BME280;69473;42.426;26.644;2023-07-31T02:52:31;98378.09;;;20.68;61.70
80149;BME280;69473;42.426;26.644;2023-07-31T02:54:57;98383.16;;;20.55;61.92
80149;BME280;69473;42.426;26.644;2023-07-31T02:57:23;98376.88;;;20.58;61.64
80149;BME280;69473;42.426;26.644;2023-07-31T02:59:49;98372.81;;;20.68;61.26
80149;BME280;69473;42.426;26.644;2023-07-31T03:02:14;98376.06;;;20.73;60.60
80149;BME280;69473;42.426;26.644;2023-07-31T03:04:40;98372.31;;;20.77;60.45
80149;BME280;69473;42.426;26.644;2023-07-31T03:07:06;98372.84;;;20.84;60.90
80149;BME280;69473;42.426;26.644;2023-07-31T03:09:31;98370.47;;;20.79;60.93
80149;BME280;69473;42.426;26.644;2023-07-31T03:11:57;98373.34;;;20.74;61.01
80149;BME280;69473;42.426;26.644;2023-07-31T03:14:22;98385.97;;;20.68;61.40
80149;BME280;69473;42.426;26.644;2023-07-31T03:16:48;98387.94;;;20.64;61.22
80149;BME280;69473;42.426;26.644;2023-07-31T03:19:14;98392.34;;;20.64;61.22
80149;BME280;69473;42.426;26.644;2023-07-31T03:21:40;98400.53;;;20.75;59.46
80149;BME280;69473;42.426;26.644;2023-07-31T03:24:05;98394.78;;;20.84;58.41
80149;BME280;69473;42.426;26.644;2023-07-31T03:26:31;98389.34;;;20.87;58.30
80149;BME280;69473;42.426;26.644;2023-07-31T03:28:57;98385.78;;;20.88;58.76
80149;BME280;69473;42.426;26.644;2023-07-31T03:31:23;98388.75;;;20.82;58.08
80149;BME280;69473;42.426;26.644;2023-07-31T03:33:48;98378.81;;;20.87;56.93
80149;BME280;69473;42.426;26.644;2023-07-31T03:36:14;98380.34;;;20.91;55.80
80149;BME280;69473;42.426;26.644;2023-07-31T03:38:39;98349.06;;;20.85;55.58
80149;BME280;69473;42.426;26.644;2023-07-31T03:41:05;98382.53;;;21.15;54.07
80149;BME280;69473;42.426;26.644;2023-07-31T03:43:32;98385.59;;;21.23;54.43
80149;BME280;69473;42.426;26.644;2023-07-31T03:46:00;98385.78;;;21.20;54.21
80149;BME280;69473;42.426;26.644;2023-07-31T03:48:26;98387.97;;;21.28;53.86
80149;BME280;69473;42.426;26.644;2023-07-31T03:50:51;98392.06;;;21.33;53.56
80149;BME280;69473;42.426;26.644;2023-07-31T03:53:17;98385.44;;;21.42;54.09
80149;BME280;69473;42.426;26.644;2023-07-31T03:55:42;98387.50;;;21.53;53.96
80149;BME280;69473;42.426;26.644;2023-07-31T03:58:08;98394.81;;;21.48;54.06
80149;BME280;69473;42.426;26.644;2023-07-31T04:00:34;98400.25;;;21.44;54.79
80149;BME280;69473;42.426;26.644;2023-07-31T04:02:59;98400.00;;;21.79;53.67
80149;BME280;69473;42.426;26.644;2023-07-31T04:05:25;98399.66;;;22.16;53.52
80149;BME280;69473;42.426;26.644;2023-07-31T04:07:51;98384.31;;;22.36;52.15
80149;BME280;69473;42.426;26.644;2023-07-31T04:10:16;98394.34;;;22.31;52.81
80149;BME280;69473;42.426;26.644;2023-07-31T04:12:42;98400.31;;;22.49;53.23
80149;BME280;69473;42.426;26.644;2023-07-31T04:15:08;98408.47;;;22.73;53.40
80149;BME280;69473;42.426;26.644;2023-07-31T04:17:33;98400.22;;;22.65;54.02
80149;BME280;69473;42.426;26.644;2023-07-31T04:19:59;98400.75;;;22.85;53.66
80149;BME280;69473;42.426;26.644;2023-07-31T04:22:24;98397.53;;;22.79;54.10
80149;BME280;69473;42.426;26.644;2023-07-31T04:24:50;98404.44;;;22.53;56.37
80149;BME280;69473;42.426;26.644;2023-07-31T04:27:15;98406.41;;;22.21;57.20
80149;BME280;69473;42.426;26.644;2023-07-31T04:29:41;98407.38;;;22.63;56.96
80149;BME280;69473;42.426;26.644;2023-07-31T04:32:08;98399.84;;;23.00;56.71
80149;BME280;69473;42.426;26.644;2023-07-31T04:34:33;98396.78;;;22.92;56.25
80149;BME280;69473;42.426;26.644;2023-07-31T04:36:59;98394.56;;;23.00;55.61
80149;BME280;69473;42.426;26.644;2023-07-31T04:39:24;98396.25;;;23.01;56.29
80149;BME280;69473;42.426;26.644;2023-07-31T04:41:50;98396.25;;;23.01;56.07
80149;BME280;69473;42.426;26.644;2023-07-31T04:44:15;98405.25;;;23.25;56.31
80149;BME280;69473;42.426;26.644;2023-07-31T04:46:41;98418.06;;;23.46;55.68
80149;BME280;69473;42.426;26.644;2023-07-31T04:49:06;98420.00;;;23.15;57.59
80149;BME280;69473;42.426;26.644;2023-07-31T04:51:32;98428.66;;;23.17;57.20
80149;BME280;69473;42.426;26.644;2023-07-31T04:53:58;98425.16;;;23.31;56.70
80149;BME280;69473;42.426;26.644;2023-07-31T04:56:23;98425.88;;;23.47;57.14
80149;BME280;69473;42.426;26.644;2023-07-31T04:58:49;98428.06;;;23.68;56.29
80149;BME280;69473;42.426;26.644;2023-07-31T05:01:14;98432.56;;;23.53;56.06
80149;BME280;69473;42.426;26.644;2023-07-31T05:03:40;98425.81;;;23.89;56.00
80149;BME280;69473;42.426;26.644;2023-07-31T05:06:05;98439.66;;;23.80;56.02
80149;BME280;69473;42.426;26.644;2023-07-31T05:08:31;98441.66;;;24.03;55.86
80149;BME280;69473;42.426;26.644;2023-07-31T05:10:56;98453.25;;;24.28;55.26
80149;BME280;69473;42.426;26.644;2023-07-31T05:13:22;98461.09;;;24.42;55.08
80149;BME280;69473;42.426;26.644;2023-07-31T05:15:47;98451.06;;;24.07;56.18
80149;BME280;69473;42.426;26.644;2023-07-31T05:18:14;98450.88;;;24.23;55.21
80149;BME280;69473;42.426;26.644;2023-07-31T05:20:40;98452.41;;;24.40;54.74
80149;BME280;69473;42.426;26.644;2023-07-31T05:23:06;98450.34;;;24.71;54.01
80149;BME280;69473;42.426;26.644;2023-07-31T05:25:32;98457.63;;;25.05;53.59
80149;BME280;69473;42.426;26.644;2023-07-31T05:27:57;98452.16;;;25.32;52.70
80149;BME280;69473;42.426;26.644;2023-07-31T05:30:23;98461.00;;;25.07;52.40
80149;BME280;69473;42.426;26.644;2023-07-31T05:32:49;98459.16;;;25.46;52.21
80149;BME280;69473;42.426;26.644;2023-07-31T05:35:14;98454.94;;;25.31;52.03
80149;BME280;69473;42.426;26.644;2023-07-31T05:37:40;98467.06;;;24.84;53.23
80149;BME280;69473;42.426;26.644;2023-07-31T05:40:06;98465.47;;;25.56;51.41
80149;BME280;69473;42.426;26.644;2023-07-31T05:42:31;98483.38;;;25.29;52.53
80149;BME280;69473;42.426;26.644;2023-07-31T05:44:57;98476.66;;;25.73;51.36
80149;BME280;69473;42.426;26.644;2023-07-31T05:47:23;98479.25;;;25.98;50.61
80149;BME280;69473;42.426;26.644;2023-07-31T05:49:49;98482.41;;;26.03;50.47
80149;BME280;69473;42.426;26.644;2023-07-31T05:52:15;98485.50;;;25.97;49.67
80149;BME280;69473;42.426;26.644;2023-07-31T05:54:42;98487.50;;;25.70;50.92
80149;BME280;69473;42.426;26.644;2023-07-31T05:57:07;98498.84;;;25.35;51.34
80149;BME280;69473;42.426;26.644;2023-07-31T05:59:33;98501.81;;;24.66;53.15
80149;BME280;69473;42.426;26.644;2023-07-31T06:01:59;98499.91;;;25.45;51.70
80149;BME280;69473;42.426;26.644;2023-07-31T06:04:24;98497.69;;;26.24;49.94
80149;BME280;69473;42.426;26.644;2023-07-31T06:06:51;98492.31;;;25.65;50.88
80149;BME280;69473;42.426;26.644;2023-07-31T06:09:16;98457.34;;;26.19;48.54
80149;BME280;69473;42.426;26.644;2023-07-31T06:11:42;98492.31;;;26.94;47.23
80149;BME280;69473;42.426;26.644;2023-07-31T06:14:08;98492.41;;;29.10;43.20
80149;BME280;69473;42.426;26.644;2023-07-31T06:16:34;98492.13;;;29.13;41.68
80149;BME280;69473;42.426;26.644;2023-07-31T06:18:59;98487.13;;;27.49;45.37
80149;BME280;69473;42.426;26.644;2023-07-31T06:21:25;98489.44;;;27.09;45.59
80149;BME280;69473;42.426;26.644;2023-07-31T06:23:50;98500.06;;;26.86;46.63
80149;BME280;69473;42.426;26.644;2023-07-31T06:26:16;98503.41;;;26.88;46.75
80149;BME280;69473;42.426;26.644;2023-07-31T06:28:42;98505.38;;;27.09;46.15
80149;BME280;69473;42.426;26.644;2023-07-31T06:31:07;98508.97;;;27.75;45.13
80149;BME280;69473;42.426;26.644;2023-07-31T06:33:32;98513.63;;;29.52;40.52
80149;BME280;69473;42.426;26.644;2023-07-31T06:35:58;98510.81;;;27.86;44.46
80149;BME280;69473;42.426;26.644;2023-07-31T06:38:25;98509.63;;;27.34;45.76
80149;BME280;69473;42.426;26.644;2023-07-31T06:40:52;98513.81;;;26.91;46.13
80149;BME280;69473;42.426;26.644;2023-07-31T06:43:18;98517.56;;;26.42;47.25
80149;BME280;69473;42.426;26.644;2023-07-31T06:45:43;98518.28;;;26.44;46.84
80149;BME280;69473;42.426;26.644;2023-07-31T06:48:09;98519.09;;;26.58;46.71
80149;BME280;69473;42.426;26.644;2023-07-31T06:50:35;98522.41;;;25.89;48.08
80149;BME280;69473;42.426;26.644;2023-07-31T06:53:00;98523.50;;;25.98;47.84
80149;BME280;69473;42.426;26.644;2023-07-31T06:55:27;98523.13;;;25.78;47.67
80149;BME280;69473;42.426;26.644;2023-07-31T06:57:54;98534.00;;;25.63;47.71
80149;BME280;69473;42.426;26.644;2023-07-31T07:00:22;98532.19;;;25.63;48.03
80149;BME280;69473;42.426;26.644;2023-07-31T07:02:48;98521.44;;;25.90;46.91
80149;BME280;69473;42.426;26.644;2023-07-31T07:05:16;98528.59;;;26.01;47.25
80149;BME280;69473;42.426;26.644;2023-07-31T07:07:42;98531.59;;;25.96;46.64
80149;BME280;69473;42.426;26.644;2023-07-31T07:10:07;98531.28;;;25.88;47.19
80149;BME280;69473;42.426;26.644;2023-07-31T07:12:34;98531.81;;;25.93;46.86
80149;BME280;69473;42.426;26.644;2023-07-31T07:15:00;98543.50;;;25.91;47.71
80149;BME280;69473;42.426;26.644;2023-07-31T07:17:26;98550.41;;;25.93;48.11
80149;BME280;69473;42.426;26.644;2023-07-31T07:19:53;98561.16;;;25.66;47.95
80149;BME280;69473;42.426;26.644;2023-07-31T07:22:18;98565.56;;;25.91;48.33
80149;BME280;69473;42.426;26.644;2023-07-31T07:24:44;98556.03;;;26.13;48.19
80149;BME280;69473;42.426;26.644;2023-07-31T07:27:10;98559.25;;;26.29;46.84
80149;BME280;69473;42.426;26.644;2023-07-31T07:29:35;98564.53;;;26.18;46.98
80149;BME280;69473;42.426;26.644;2023-07-31T07:32:01;98574.63;;;26.13;46.73
80149;BME280;69473;42.426;26.644;2023-07-31T07:34:28;98572.59;;;25.92;47.77
80149;BME280;69473;42.426;26.644;2023-07-31T07:36:54;98569.09;;;26.16;49.04
80149;BME280;69473;42.426;26.644;2023-07-31T07:39:20;98574.03;;;26.33;48.57
80149;BME280;69473;42.426;26.644;2023-07-31T07:41:46;98583.94;;;25.94;49.03
80149;BME280;69473;42.426;26.644;2023-07-31T07:44:13;98589.06;;;25.72;49.56
80149;BME280;69473;42.426;26.644;2023-07-31T07:46:39;98595.63;;;25.79;49.53
80149;BME280;69473;42.426;26.644;2023-07-31T07:49:05;98594.06;;;25.76;49.48
80149;BME280;69473;42.426;26.644;2023-07-31T07:51:30;98597.66;;;25.63;49.48
80149;BME280;69473;42.426;26.644;2023-07-31T07:53:57;98601.88;;;25.78;49.46
80149;BME280;69473;42.426;26.644;2023-07-31T07:56:25;98594.06;;;25.64;49.24
80149;BME280;69473;42.426;26.644;2023-07-31T07:58:50;98612.56;;;25.27;49.92
80149;BME280;69473;42.426;26.644;2023-07-31T08:01:16;98616.78;;;25.17;49.68
80149;BME280;69473;42.426;26.644;2023-07-31T08:03:42;98612.69;;;24.98;50.79
80149;BME280;69473;42.426;26.644;2023-07-31T08:06:07;98608.69;;;24.80;51.90
80149;BME280;69473;42.426;26.644;2023-07-31T08:08:35;98607.16;;;24.76;52.00
80149;BME280;69473;42.426;26.644;2023-07-31T08:11:01;98602.19;;;24.71;52.16
80149;BME280;69473;42.426;26.644;2023-07-31T08:13:27;98609.91;;;24.61;52.50
80149;BME280;69473;42.426;26.644;2023-07-31T08:15:52;98605.53;;;24.60;52.41
80149;BME280;69473;42.426;26.644;2023-07-31T08:18:18;98591.25;;;24.76;53.04
80149;BME280;69473;42.426;26.644;2023-07-31T08:20:44;98592.38;;;24.86;51.60
80149;BME280;69473;42.426;26.644;2023-07-31T08:23:10;98597.72;;;24.72;52.11
80149;BME280;69473;42.426;26.644;2023-07-31T08:25:36;98599.34;;;24.74;51.34
80149;BME280;69473;42.426;26.644;2023-07-31T08:28:03;98595.69;;;24.62;52.19
80149;BME280;69473;42.426;26.644;2023-07-31T08:30:28;98584.69;;;24.69;51.41
80149;BME280;69473;42.426;26.644;2023-07-31T08:32:54;98572.09;;;24.85;51.58
80149;BME280;69473;42.426;26.644;2023-07-31T08:35:20;98563.50;;;24.81;51.74
80149;BME280;69473;42.426;26.644;2023-07-31T08:37:45;98551.50;;;24.63;52.52
80149;BME280;69473;42.426;26.644;2023-07-31T08:40:11;98558.00;;;24.72;52.11
80149;BME280;69473;42.426;26.644;2023-07-31T08:42:47;98557.25;;;24.82;51.23
80149;BME280;69473;42.426;26.644;2023-07-31T08:45:17;98563.72;;;24.78;52.12
80149;BME280;69473;42.426;26.644;2023-07-31T08:47:51;98561.81;;;24.68;52.62
80149;BME280;69473;42.426;26.644;2023-07-31T08:50:21;98559.44;;;24.50;54.09
80149;BME280;69473;42.426;26.644;2023-07-31T08:52:48;98562.63;;;24.55;54.07
80149;BME280;69473;42.426;26.644;2023-07-31T08:55:14;98556.44;;;24.42;55.52
80149;BME280;69473;42.426;26.644;2023-07-31T08:57:41;98560.00;;;24.41;54.83
80149;BME280;69473;42.426;26.644;2023-07-31T09:00:09;98562.50;;;24.30;55.95
80149;BME280;69473;42.426;26.644;2023-07-31T09:05:15;98551.03;;;24.16;56.97
80149;BME280;69473;42.426;26.644;2023-07-31T09:07:45;98558.28;;;24.00;57.83
80149;BME280;69473;42.426;26.644;2023-07-31T09:10:12;98557.13;;;24.04;58.86
80149;BME280;69473;42.426;26.644;2023-07-31T09:12:39;98555.28;;;23.92;59.46
80149;BME280;69473;42.426;26.644;2023-07-31T09:15:05;98562.09;;;23.82;60.28
80149;BME280;69473;42.426;26.644;2023-07-31T09:17:33;98567.19;;;23.85;60.47
80149;BME280;69473;42.426;26.644;2023-07-31T09:20:16;98573.81;;;23.63;63.60
80149;BME280;69473;42.426;26.644;2023-07-31T09:22:44;98570.75;;;23.71;63.68
80149;BME280;69473;42.426;26.644;2023-07-31T09:25:22;98560.69;;;23.62;64.97
80149;BME280;69473;42.426;26.644;2023-07-31T09:28:06;98557.28;;;23.60;66.18
80149;BME280;69473;42.426;26.644;2023-07-31T09:30:45;98550.59;;;23.68;64.26
80149;BME280;69473;42.426;26.644;2023-07-31T09:33:11;98556.44;;;23.73;64.64
80149;BME280;69473;42.426;26.644;2023-07-31T09:35:36;98544.94;;;23.74;65.31
80149;BME280;69473;42.426;26.644;2023-07-31T09:38:12;98559.84;;;23.33;67.51
80149;BME280;69473;42.426;26.644;2023-07-31T09:40:41;98559.09;;;23.45;66.55
80149;BME280;69473;42.426;26.644;2023-07-31T09:43:10;98563.16;;;23.50;65.75
80149;BME280;69473;42.426;26.644;2023-07-31T09:45:38;98547.38;;;23.78;64.29
80149;BME280;69473;42.426;26.644;2023-07-31T09:48:12;98546.78;;;23.87;64.46
80149;BME280;69473;42.426;26.644;2023-07-31T09:50:40;98545.13;;;23.14;67.46
80149;BME280;69473;42.426;26.644;2023-07-31T09:53:07;98544.97;;;23.46;67.26
80149;BME280;69473;42.426;26.644;2023-07-31T09:55:34;98539.50;;;23.90;65.08
80149;BME280;69473;42.426;26.644;2023-07-31T09:58:05;98545.66;;;23.91;66.79
80149;BME280;69473;42.426;26.644;2023-07-31T10:00:31;98551.50;;;23.96;66.35
80149;BME280;69473;42.426;26.644;2023-07-31T10:03:03;98557.41;;;23.72;67.41
80149;BME280;69473;42.426;26.644;2023-07-31T10:05:50;98559.63;;;23.64;67.09
80149;BME280;69473;42.426;26.644;2023-07-31T10:08:19;98559.25;;;23.99;65.31
80149;BME280;69473;42.426;26.644;2023-07-31T10:10:46;98558.16;;;24.43;64.08
80149;BME280;69473;42.426;26.644;2023-07-31T10:13:13;98554.16;;;24.63;62.06
80149;BME280;69473;42.426;26.644;2023-07-31T10:15:40;98563.03;;;24.49;62.67
80149;BME280;69473;42.426;26.644;2023-07-31T10:18:07;98560.22;;;24.38;63.65
80149;BME280;69473;42.426;26.644;2023-07-31T10:20:33;98570.44;;;24.44;63.71
80149;BME280;69473;42.426;26.644;2023-07-31T10:23:00;98565.22;;;24.15;65.00
80149;BME280;69473;42.426;26.644;2023-07-31T10:25:26;98563.13;;;24.20;62.60
80149;BME280;69473;42.426;26.644;2023-07-31T10:27:53;98564.44;;;24.28;63.00
80149;BME280;69473;42.426;26.644;2023-07-31T10:30:23;98563.38;;;24.70;62.02
80149;BME280;69473;42.426;26.644;2023-07-31T10:32:51;98557.16;;;24.97;60.40
80149;BME280;69473;42.426;26.644;2023-07-31T10:35:18;98555.09;;;25.15;59.03
80149;BME280;69473;42.426;26.644;2023-07-31T10:37:44;98547.84;;;25.42;57.31
80149;BME280;69473;42.426;26.644;2023-07-31T10:40:18;98538.34;;;25.64;57.18
80149;BME280;69473;42.426;26.644;2023-07-31T10:42:49;98541.91;;;25.26;58.73
80149;BME280;69473;42.426;26.644;2023-07-31T10:45:33;98537.53;;;26.00;55.17
80149;BME280;69473;42.426;26.644;2023-07-31T10:48:01;98538.56;;;26.45;51.68
80149;BME280;69473;42.426;26.644;2023-07-31T10:50:29;98538.34;;;26.84;51.92
80149;BME280;69473;42.426;26.644;2023-07-31T10:52:57;98533.16;;;26.82;50.31
80149;BME280;69473;42.426;26.644;2023-07-31T10:55:38;98538.31;;;27.30;49.27
80149;BME280;69473;42.426;26.644;2023-07-31T10:58:10;98530.41;;;27.62;47.22
80149;BME280;69473;42.426;26.644;2023-07-31T11:00:43;98519.78;;;28.17;46.27
80149;BME280;69473;42.426;26.644;2023-07-31T11:03:19;98521.41;;;28.83;44.87
80149;BME280;69473;42.426;26.644;2023-07-31T11:08:32;98525.97;;;28.92;44.25
80149;BME280;69473;42.426;26.644;2023-07-31T11:13:34;98529.34;;;29.15;43.26
80149;BME280;69473;42.426;26.644;2023-07-31T11:16:04;98517.94;;;29.43;42.68
80149;BME280;69473;42.426;26.644;2023-07-31T11:18:30;98522.28;;;29.35;41.22
80149;BME280;69473;42.426;26.644;2023-07-31T11:20:55;98514.78;;;28.98;41.43
80149;BME280;69473;42.426;26.644;2023-07-31T11:23:22;98516.00;;;28.94;42.67
80149;BME280;69473;42.426;26.644;2023-07-31T11:25:49;98514.19;;;28.52;43.02
80149;BME280;69473;42.426;26.644;2023-07-31T11:28:17;98515.31;;;28.71;42.34
80149;BME280;69473;42.426;26.644;2023-07-31T11:30:44;98508.53;;;28.88;42.06
80149;BME280;69473;42.426;26.644;2023-07-31T11:33:13;98507.28;;;29.13;41.32
80149;BME280;69473;42.426;26.644;2023-07-31T11:35:45;98500.00;;;28.94;41.64
80149;BME280;69473;42.426;26.644;2023-07-31T11:38:12;98505.09;;;28.76;42.90
80149;BME280;69473;42.426;26.644;2023-07-31T11:40:46;98508.03;;;28.52;42.48
80149;BME280;69473;42.426;26.644;2023-07-31T11:43:11;98498.03;;;28.33;43.27
80149;BME280;69473;42.426;26.644;2023-07-31T11:45:42;98498.22;;;28.20;45.81
80149;BME280;69473;42.426;26.644;2023-07-31T11:48:10;98498.00;;;28.12;44.97
80149;BME280;69473;42.426;26.644;2023-07-31T11:50:36;98494.41;;;28.02;45.55
80149;BME280;69473;42.426;26.644;2023-07-31T11:53:07;98498.31;;;27.98;45.62
80149;BME280;69473;42.426;26.644;2023-07-31T11:55:34;98493.00;;;27.98;46.54
80149;BME280;69473;42.426;26.644;2023-07-31T11:58:01;98492.00;;;27.99;45.16
80149;BME280;69473;42.426;26.644;2023-07-31T12:00:27;98480.47;;;27.77;46.56
80149;BME280;69473;42.426;26.644;2023-07-31T12:02:54;98479.19;;;27.93;46.84
80149;BME280;69473;42.426;26.644;2023-07-31T12:05:21;98481.00;;;28.24;46.09
80149;BME280;69473;42.426;26.644;2023-07-31T12:07:54;98486.81;;;28.71;46.01
80149;BME280;69473;42.426;26.644;2023-07-31T12:10:31;98476.13;;;29.13;45.02
80149;BME280;69473;42.426;26.644;2023-07-31T12:13:05;98471.78;;;29.62;44.56
80149;BME280;69473;42.426;26.644;2023-07-31T12:15:40;98469.03;;;29.33;44.50
80149;BME280;69473;42.426;26.644;2023-07-31T12:18:14;98461.94;;;28.82;45.37
80149;BME280;69473;42.426;26.644;2023-07-31T12:20:43;98471.41;;;28.75;46.99
80149;BME280;69473;42.426;26.644;2023-07-31T12:23:23;98465.03;;;28.87;46.13
80149;BME280;69473;42.426;26.644;2023-07-31T12:28:48;98458.16;;;29.15;45.63
80149;BME280;69473;42.426;26.644;2023-07-31T12:31:16;98455.13;;;29.30;45.36
80149;BME280;69473;42.426;26.644;2023-07-31T12:33:46;98451.31;;;28.92;46.13
80149;BME280;69473;42.426;26.644;2023-07-31T12:36:15;98445.63;;;28.75;44.64
80149;BME280;69473;42.426;26.644;2023-07-31T12:38:41;98453.06;;;28.82;45.63
80149;BME280;69473;42.426;26.644;2023-07-31T12:41:08;98446.19;;;28.37;45.76
80149;BME280;69473;42.426;26.644;2023-07-31T12:43:35;98437.59;;;28.13;47.31
80149;BME280;69473;42.426;26.644;2023-07-31T12:46:01;98436.91;;;28.73;46.07
80149;BME280;69473;42.426;26.644;2023-07-31T12:48:27;98425.72;;;28.80;47.01
80149;BME280;69473;42.426;26.644;2023-07-31T12:50:52;98435.81;;;28.55;46.54
80149;BME280;69473;42.426;26.644;2023-07-31T12:53:18;98432.75;;;28.39;46.66
80149;BME280;69473;42.426;26.644;2023-07-31T12:55:43;98428.47;;;28.26;47.36
80149;BME280;69473;42.426;26.644;2023-07-31T12:58:09;98429.28;;;28.27;46.03
80149;BME280;69473;42.426;26.644;2023-07-31T13:00:35;98423.13;;;28.26;46.52
80149;BME280;69473;42.426;26.644;2023-07-31T13:03:01;98423.69;;;28.09;46.14
80149;BME280;69473;42.426;26.644;2023-07-31T13:05:27;98425.13;;;28.34;45.35